sensor_id;sensor_type;location;lat;lon;timestamp;pressure;altitude;pressure_sealevel;temperature;humidity
68594;BME280;55563;52.416;13.548;2023-09-12T00:01:08;100741.34;;;18.17;100.00
68594;BME280;55563;52.416;13.548;2023-09-12T00:03:08;100739.22;;;18.37;100.00
68594;BME280;55563;52.416;13.548;2023-09-12T00:05:09;100744.66;;;18.62;100.00
68594;BME280;55563;52.416;13.548;2023-09-12T00:07:10;100738.25;;;18.63;100.00
68594;BME280;55563;52.416;13.548;2023-09-12T00:09:10;100738.69;;;18.57;100.00
68594;BME280;55563;52.416;13.548;2023-09-12T00:11:11;100744.63;;;18.54;100.00
68594;BME280;55563;52.416;13.548;2023-09-12T00:13:12;100747.25;;;18.45;100.00
68594;BME280;55563;52.416;13.548;2023-09-12T00:15:12;100746.09;;;18.38;100.00
68594;BME280;55563;52.416;13.548;2023-09-12T00:17:13;100748.97;;;18.10;100.00
68594;BME280;55563;52.416;13.548;2023-09-12T00:19:13;100751.19;;;18.17;100.00
68594;BME280;55563;52.416;13.548;2023-09-12T00:21:14;100746.75;;;18.43;100.00
68594;BME280;55563;52.416;13.548;2023-09-12T00:23:15;100744.09;;;18.43;100.00
68594;BME280;55563;52.416;13.548;2023-09-12T00:25:16;100743.00;;;18.44;100.00
68594;BME280;55563;52.416;13.548;2023-09-12T00:27:17;100740.34;;;18.44;100.00
68594;BME280;55563;52.416;13.548;2023-09-12T00:29:17;100743.78;;;18.45;100.00
68594;BME280;55563;52.416;13.548;2023-09-12T00:31:18;100748.31;;;18.36;100.00
68594;BME280;55563;52.416;13.548;2023-09-12T00:33:18;100749.03;;;18.27;100.00
68594;BME280;55563;52.416;13.548;2023-09-12T00:35:19;100749.56;;;18.38;100.00
68594;BME280;55563;52.416;13.548;2023-09-12T00:37:19;100747.16;;;18.28;100.00
68594;BME280;55563;52.416;13.548;2023-09-12T00:39:20;100751.63;;;18.10;100.00
68594;BME280;55563;52.416;13.548;2023-09-12T00:41:21;100743.44;;;17.98;100.00
68594;BME280;55563;52.416;13.548;2023-09-12T00:43:21;100746.91;;;18.07;100.00
68594;BME280;55563;52.416;13.548;2023-09-12T00:45:22;100740.34;;;17.82;100.00
68594;BME280;55563;52.416;13.548;2023-09-12T00:47:23;100748.88;;;18.24;100.00
68594;BME280;55563;52.416;13.548;2023-09-12T00:49:24;100746.88;;;18.38;100.00
68594;BME280;55563;52.416;13.548;2023-09-12T00:51:26;100744.56;;;18.37;100.00
68594;BME280;55563;52.416;13.548;2023-09-12T00:53:27;100738.97;;;18.16;100.00
68594;BME280;55563;52.416;13.548;2023-09-12T00:55:28;100747.25;;;18.14;100.00
68594;BME280;55563;52.416;13.548;2023-09-12T00:57:30;100742.97;;;18.36;100.00
68594;BME280;55563;52.416;13.548;2023-09-12T00:59:32;100745.88;;;18.17;100.00
68594;BME280;55563;52.416;13.548;2023-09-12T01:01:32;100744.38;;;18.33;100.00
68594;BME280;55563;52.416;13.548;2023-09-12T01:03:34;100740.41;;;18.22;100.00
68594;BME280;55563;52.416;13.548;2023-09-12T01:05:35;100739.59;;;18.13;100.00
68594;BME280;55563;52.416;13.548;2023-09-12T01:07:37;100747.63;;;17.99;100.00
68594;BME280;55563;52.416;13.548;2023-09-12T01:09:37;100753.94;;;18.03;100.00
68594;BME280;55563;52.416;13.548;2023-09-12T01:11:38;100748.56;;;17.72;100.00
68594;BME280;55563;52.416;13.548;2023-09-12T01:13:39;100749.25;;;17.78;100.00
68594;BME280;55563;52.416;13.548;2023-09-12T01:15:41;100750.22;;;17.82;100.00
68594;BME280;55563;52.416;13.548;2023-09-12T01:17:43;100743.50;;;17.62;100.00
68594;BME280;55563;52.416;13.548;2023-09-12T01:19:44;100744.66;;;17.56;100.00
68594;BME280;55563;52.416;13.548;2023-09-12T01:21:58;100735.78;;;17.38;100.00
68594;BME280;55563;52.416;13.548;2023-09-12T01:26:56;100736.97;;;17.32;100.00
68594;BME280;55563;52.416;13.548;2023-09-12T01:29:00;100747.44;;;17.65;100.00
68594;BME280;55563;52.416;13.548;2023-09-12T01:31:02;100746.06;;;17.18;100.00
68594;BME280;55563;52.416;13.548;2023-09-12T01:33:03;100744.28;;;17.27;100.00
68594;BME280;55563;52.416;13.548;2023-09-12T01:35:04;100753.72;;;17.69;100.00
68594;BME280;55563;52.416;13.548;2023-09-12T01:37:05;100746.94;;;17.63;100.00
68594;BME280;55563;52.416;13.548;2023-09-12T01:39:06;100740.34;;;17.60;100.00
68594;BME280;55563;52.416;13.548;2023-09-12T01:41:07;100748.53;;;17.64;100.00
68594;BME280;55563;52.416;13.548;2023-09-12T01:43:08;100752.88;;;17.60;100.00
68594;BME280;55563;52.416;13.548;2023-09-12T01:45:12;100745.91;;;17.50;100.00
68594;BME280;55563;52.416;13.548;2023-09-12T01:47:14;100742.78;;;17.34;100.00
68594;BME280;55563;52.416;13.548;2023-09-12T01:49:18;100739.97;;;17.31;100.00
68594;BME280;55563;52.416;13.548;2023-09-12T01:51:20;100746.69;;;17.15;100.00
68594;BME280;55563;52.416;13.548;2023-09-12T01:53:21;100747.72;;;16.91;100.00
68594;BME280;55563;52.416;13.548;2023-09-12T01:55:22;100745.16;;;16.86;100.00
68594;BME280;55563;52.416;13.548;2023-09-12T01:57:23;100738.31;;;17.08;100.00
68594;BME280;55563;52.416;13.548;2023-09-12T01:59:25;100739.06;;;17.22;100.00
68594;BME280;55563;52.416;13.548;2023-09-12T02:01:25;100737.59;;;17.29;100.00
68594;BME280;55563;52.416;13.548;2023-09-12T02:03:27;100739.63;;;17.32;100.00
68594;BME280;55563;52.416;13.548;2023-09-12T02:05:28;100737.41;;;17.26;100.00
68594;BME280;55563;52.416;13.548;2023-09-12T02:07:35;100739.88;;;17.22;100.00
68594;BME280;55563;52.416;13.548;2023-09-12T02:09:37;100736.66;;;17.12;100.00
68594;BME280;55563;52.416;13.548;2023-09-12T02:11:39;100738.25;;;16.99;100.00
68594;BME280;55563;52.416;13.548;2023-09-12T02:13:39;100738.06;;;16.95;100.00
68594;BME280;55563;52.416;13.548;2023-09-12T02:15:41;100726.56;;;17.00;100.00
68594;BME280;55563;52.416;13.548;2023-09-12T02:17:42;100722.03;;;17.00;100.00
68594;BME280;55563;52.416;13.548;2023-09-12T02:19:43;100729.84;;;16.83;100.00
68594;BME280;55563;52.416;13.548;2023-09-12T02:21:43;100724.50;;;16.56;100.00
68594;BME280;55563;52.416;13.548;2023-09-12T02:23:44;100729.22;;;16.45;100.00
68594;BME280;55563;52.416;13.548;2023-09-12T02:25:44;100728.34;;;16.91;100.00
68594;BME280;55563;52.416;13.548;2023-09-12T02:27:45;100729.72;;;16.88;100.00
68594;BME280;55563;52.416;13.548;2023-09-12T02:29:46;100723.59;;;17.02;100.00
68594;BME280;55563;52.416;13.548;2023-09-12T02:31:47;100729.84;;;16.70;100.00
68594;BME280;55563;52.416;13.548;2023-09-12T02:33:47;100723.88;;;16.64;100.00
68594;BME280;55563;52.416;13.548;2023-09-12T02:35:48;100731.38;;;16.84;100.00
68594;BME280;55563;52.416;13.548;2023-09-12T02:37:49;100718.59;;;17.00;100.00
68594;BME280;55563;52.416;13.548;2023-09-12T02:39:49;100727.44;;;16.95;100.00
68594;BME280;55563;52.416;13.548;2023-09-12T02:41:50;100722.63;;;16.84;100.00
68594;BME280;55563;52.416;13.548;2023-09-12T02:43:51;100724.72;;;16.87;100.00
68594;BME280;55563;52.416;13.548;2023-09-12T02:45:52;100722.81;;;17.01;100.00
68594;BME280;55563;52.416;13.548;2023-09-12T02:47:52;100723.50;;;16.93;100.00
68594;BME280;55563;52.416;13.548;2023-09-12T02:49:53;100721.63;;;16.93;100.00
68594;BME280;55563;52.416;13.548;2023-09-12T02:51:54;100724.97;;;16.99;100.00
68594;BME280;55563;52.416;13.548;2023-09-12T02:53:55;100720.16;;;17.01;100.00
68594;BME280;55563;52.416;13.548;2023-09-12T02:55:56;100713.84;;;17.11;100.00
68594;BME280;55563;52.416;13.548;2023-09-12T02:57:56;100721.06;;;16.96;100.00
68594;BME280;55563;52.416;13.548;2023-09-12T02:59:58;100715.53;;;16.93;100.00
68594;BME280;55563;52.416;13.548;2023-09-12T03:01:58;100717.16;;;16.80;100.00
68594;BME280;55563;52.416;13.548;2023-09-12T03:03:59;100714.59;;;16.75;100.00
68594;BME280;55563;52.416;13.548;2023-09-12T03:06:01;100715.91;;;16.64;100.00
68594;BME280;55563;52.416;13.548;2023-09-12T03:08:03;100719.50;;;16.82;100.00
68594;BME280;55563;52.416;13.548;2023-09-12T03:10:04;100720.41;;;16.77;100.00
68594;BME280;55563;52.416;13.548;2023-09-12T03:12:06;100718.44;;;16.69;100.00
68594;BME280;55563;52.416;13.548;2023-09-12T03:14:07;100714.19;;;16.82;100.00
68594;BME280;55563;52.416;13.548;2023-09-12T03:16:11;100717.16;;;16.80;100.00
68594;BME280;55563;52.416;13.548;2023-09-12T03:18:12;100715.38;;;16.48;100.00
68594;BME280;55563;52.416;13.548;2023-09-12T03:20:13;100713.53;;;16.49;100.00
68594;BME280;55563;52.416;13.548;2023-09-12T03:22:14;100708.28;;;16.57;100.00
68594;BME280;55563;52.416;13.548;2023-09-12T03:24:15;100710.00;;;16.67;100.00
68594;BME280;55563;52.416;13.548;2023-09-12T03:26:19;100704.41;;;16.69;100.00
68594;BME280;55563;52.416;13.548;2023-09-12T03:28:20;100710.38;;;16.88;100.00
68594;BME280;55563;52.416;13.548;2023-09-12T03:30:21;100702.66;;;17.00;100.00
68594;BME280;55563;52.416;13.548;2023-09-12T03:32:22;100699.72;;;17.02;100.00
68594;BME280;55563;52.416;13.548;2023-09-12T03:34:23;100709.47;;;16.92;100.00
68594;BME280;55563;52.416;13.548;2023-09-12T03:36:24;100698.16;;;16.87;100.00
68594;BME280;55563;52.416;13.548;2023-09-12T03:38:24;100702.63;;;16.78;100.00
68594;BME280;55563;52.416;13.548;2023-09-12T03:40:28;100702.09;;;16.89;100.00
68594;BME280;55563;52.416;13.548;2023-09-12T03:42:29;100703.91;;;17.02;100.00
68594;BME280;55563;52.416;13.548;2023-09-12T03:44:30;100708.34;;;17.07;100.00
68594;BME280;55563;52.416;13.548;2023-09-12T03:46:31;100712.56;;;17.08;100.00
68594;BME280;55563;52.416;13.548;2023-09-12T03:48:32;100710.00;;;17.17;100.00
68594;BME280;55563;52.416;13.548;2023-09-12T03:50:33;100707.22;;;16.86;100.00
68594;BME280;55563;52.416;13.548;2023-09-12T03:52:34;100714.28;;;16.90;100.00
68594;BME280;55563;52.416;13.548;2023-09-12T03:54:34;100706.31;;;16.90;100.00
68594;BME280;55563;52.416;13.548;2023-09-12T03:56:35;100710.81;;;17.04;100.00
68594;BME280;55563;52.416;13.548;2023-09-12T03:58:36;100713.06;;;17.10;100.00
68594;BME280;55563;52.416;13.548;2023-09-12T04:00:36;100723.19;;;17.08;100.00
68594;BME280;55563;52.416;13.548;2023-09-12T04:02:37;100726.47;;;16.91;100.00
68594;BME280;55563;52.416;13.548;2023-09-12T04:04:38;100721.09;;;16.83;100.00
68594;BME280;55563;52.416;13.548;2023-09-12T04:06:40;100726.06;;;16.98;100.00
68594;BME280;55563;52.416;13.548;2023-09-12T04:08:41;100728.41;;;16.99;100.00
68594;BME280;55563;52.416;13.548;2023-09-12T04:10:43;100725.91;;;16.81;100.00
68594;BME280;55563;52.416;13.548;2023-09-12T04:12:44;100728.75;;;16.71;100.00
68594;BME280;55563;52.416;13.548;2023-09-12T04:14:45;100727.69;;;16.72;100.00
68594;BME280;55563;52.416;13.548;2023-09-12T04:16:46;100726.75;;;16.90;100.00
68594;BME280;55563;52.416;13.548;2023-09-12T04:18:47;100725.09;;;16.94;100.00
68594;BME280;55563;52.416;13.548;2023-09-12T04:20:48;100723.59;;;17.02;100.00
68594;BME280;55563;52.416;13.548;2023-09-12T04:22:49;100728.88;;;17.15;100.00
68594;BME280;55563;52.416;13.548;2023-09-12T04:24:50;100727.59;;;17.13;100.00
68594;BME280;55563;52.416;13.548;2023-09-12T04:26:53;100732.94;;;16.99;100.00
68594;BME280;55563;52.416;13.548;2023-09-12T04:28:54;100736.41;;;16.86;100.00
68594;BME280;55563;52.416;13.548;2023-09-12T04:31:02;100732.94;;;16.99;100.00
68594;BME280;55563;52.416;13.548;2023-09-12T04:33:04;100732.94;;;16.99;100.00
68594;BME280;55563;52.416;13.548;2023-09-12T04:35:05;100739.66;;;16.96;100.00
68594;BME280;55563;52.416;13.548;2023-09-12T04:37:06;100744.00;;;16.92;100.00
68594;BME280;55563;52.416;13.548;2023-09-12T04:39:07;100742.00;;;16.84;100.00
68594;BME280;55563;52.416;13.548;2023-09-12T04:41:08;100745.03;;;16.50;100.00
68594;BME280;55563;52.416;13.548;2023-09-12T04:43:10;100751.63;;;16.26;100.00
68594;BME280;55563;52.416;13.548;2023-09-12T04:45:11;100745.63;;;16.20;100.00
68594;BME280;55563;52.416;13.548;2023-09-12T04:47:12;100741.31;;;16.38;100.00
68594;BME280;55563;52.416;13.548;2023-09-12T04:49:13;100737.88;;;16.51;100.00
68594;BME280;55563;52.416;13.548;2023-09-12T04:51:15;100742.44;;;16.64;100.00
68594;BME280;55563;52.416;13.548;2023-09-12T04:53:17;100730.84;;;16.74;100.00
68594;BME280;55563;52.416;13.548;2023-09-12T04:55:18;100732.09;;;16.76;100.00
68594;BME280;55563;52.416;13.548;2023-09-12T04:57:19;100731.59;;;16.61;100.00
68594;BME280;55563;52.416;13.548;2023-09-12T04:59:20;100738.28;;;16.85;100.00
68594;BME280;55563;52.416;13.548;2023-09-12T05:01:21;100734.63;;;16.95;100.00
68594;BME280;55563;52.416;13.548;2023-09-12T05:03:22;100734.31;;;17.10;100.00
68594;BME280;55563;52.416;13.548;2023-09-12T05:05:24;100736.56;;;17.17;100.00
68594;BME280;55563;52.416;13.548;2023-09-12T05:07:27;100735.88;;;17.11;100.00
68594;BME280;55563;52.416;13.548;2023-09-12T05:09:27;100740.25;;;16.80;100.00
68594;BME280;55563;52.416;13.548;2023-09-12T05:11:28;100738.78;;;16.87;100.00
68594;BME280;55563;52.416;13.548;2023-09-12T05:13:32;100736.47;;;17.08;100.00
68594;BME280;55563;52.416;13.548;2023-09-12T05:15:34;100738.44;;;17.16;100.00
68594;BME280;55563;52.416;13.548;2023-09-12T05:17:37;100748.63;;;17.23;100.00
68594;BME280;55563;52.416;13.548;2023-09-12T05:19:38;100753.81;;;17.28;100.00
68594;BME280;55563;52.416;13.548;2023-09-12T05:21:41;100753.72;;;17.33;100.00
68594;BME280;55563;52.416;13.548;2023-09-12T05:23:42;100753.16;;;17.58;100.00
68594;BME280;55563;52.416;13.548;2023-09-12T05:25:43;100756.50;;;17.64;100.00
68594;BME280;55563;52.416;13.548;2023-09-12T05:27:43;100753.25;;;17.53;100.00
68594;BME280;55563;52.416;13.548;2023-09-12T05:29:46;100756.78;;;17.62;100.00
68594;BME280;55563;52.416;13.548;2023-09-12T05:31:47;100742.19;;;17.73;100.00
68594;BME280;55563;52.416;13.548;2023-09-12T05:33:48;100756.09;;;18.01;100.00
68594;BME280;55563;52.416;13.548;2023-09-12T05:35:49;100751.66;;;18.19;100.00
68594;BME280;55563;52.416;13.548;2023-09-12T05:37:50;100758.03;;;18.40;100.00
68594;BME280;55563;52.416;13.548;2023-09-12T05:39:51;100761.13;;;18.34;100.00
68594;BME280;55563;52.416;13.548;2023-09-12T05:41:52;100762.16;;;18.24;100.00
68594;BME280;55563;52.416;13.548;2023-09-12T05:43:53;100764.25;;;18.05;100.00
68594;BME280;55563;52.416;13.548;2023-09-12T05:45:54;100759.81;;;18.22;100.00
68594;BME280;55563;52.416;13.548;2023-09-12T05:47:55;100762.66;;;18.26;100.00
68594;BME280;55563;52.416;13.548;2023-09-12T05:49:56;100765.53;;;18.47;100.00
68594;BME280;55563;52.416;13.548;2023-09-12T05:51:57;100760.78;;;18.57;100.00
68594;BME280;55563;52.416;13.548;2023-09-12T05:53:57;100757.06;;;18.76;100.00
68594;BME280;55563;52.416;13.548;2023-09-12T05:55:59;100755.38;;;18.88;100.00
68594;BME280;55563;52.416;13.548;2023-09-12T05:58:00;100762.13;;;18.94;100.00
68594;BME280;55563;52.416;13.548;2023-09-12T06:00:01;100760.75;;;19.83;100.00
68594;BME280;55563;52.416;13.548;2023-09-12T06:02:15;100757.06;;;20.89;100.00
68594;BME280;55563;52.416;13.548;2023-09-12T06:04:23;100757.84;;;20.89;100.00
68594;BME280;55563;52.416;13.548;2023-09-12T06:06:25;100761.56;;;21.92;100.00
68594;BME280;55563;52.416;13.548;2023-09-12T06:08:27;100766.00;;;22.21;100.00
68594;BME280;55563;52.416;13.548;2023-09-12T06:10:29;100767.84;;;22.53;100.00
68594;BME280;55563;52.416;13.548;2023-09-12T06:12:32;100769.81;;;23.05;100.00
68594;BME280;55563;52.416;13.548;2023-09-12T06:14:34;100757.69;;;23.23;100.00
68594;BME280;55563;52.416;13.548;2023-09-12T06:16:38;100765.91;;;23.42;100.00
68594;BME280;55563;52.416;13.548;2023-09-12T06:18:40;100760.63;;;23.58;100.00
68594;BME280;55563;52.416;13.548;2023-09-12T06:20:41;100757.16;;;24.01;100.00
68594;BME280;55563;52.416;13.548;2023-09-12T06:22:43;100766.13;;;24.21;100.00
68594;BME280;55563;52.416;13.548;2023-09-12T06:24:44;100754.28;;;24.10;100.00
68594;BME280;55563;52.416;13.548;2023-09-12T06:26:47;100759.97;;;24.71;100.00
68594;BME280;55563;52.416;13.548;2023-09-12T06:28:50;100761.00;;;24.82;100.00
68594;BME280;55563;52.416;13.548;2023-09-12T06:30:54;100758.06;;;24.87;100.00
68594;BME280;55563;52.416;13.548;2023-09-12T06:32:55;100751.38;;;24.81;100.00
68594;BME280;55563;52.416;13.548;2023-09-12T06:34:56;100774.31;;;25.29;100.00
68594;BME280;55563;52.416;13.548;2023-09-12T06:36:57;100769.91;;;24.51;100.00
68594;BME280;55563;52.416;13.548;2023-09-12T06:38:58;100781.88;;;23.79;100.00
68594;BME280;55563;52.416;13.548;2023-09-12T06:40:59;100778.78;;;23.49;100.00
68594;BME280;55563;52.416;13.548;2023-09-12T06:43:05;100790.63;;;23.36;100.00
68594;BME280;55563;52.416;13.548;2023-09-12T06:45:05;100789.47;;;23.09;100.00
68594;BME280;55563;52.416;13.548;2023-09-12T06:47:06;100789.38;;;22.93;100.00
68594;BME280;55563;52.416;13.548;2023-09-12T06:49:07;100800.78;;;23.42;100.00
68594;BME280;55563;52.416;13.548;2023-09-12T06:51:09;100791.56;;;24.43;100.00
68594;BME280;55563;52.416;13.548;2023-09-12T06:53:10;100790.34;;;24.71;100.00
68594;BME280;55563;52.416;13.548;2023-09-12T06:55:11;100791.84;;;23.94;100.00
68594;BME280;55563;52.416;13.548;2023-09-12T06:57:12;100794.19;;;23.52;100.00
68594;BME280;55563;52.416;13.548;2023-09-12T06:59:12;100788.13;;;23.15;100.00
68594;BME280;55563;52.416;13.548;2023-09-12T07:01:13;100792.56;;;23.23;100.00
68594;BME280;55563;52.416;13.548;2023-09-12T07:03:15;100790.34;;;23.13;100.00
68594;BME280;55563;52.416;13.548;2023-09-12T07:05:15;100797.50;;;23.21;100.00
68594;BME280;55563;52.416;13.548;2023-09-12T07:07:16;100796.34;;;23.22;100.00
68594;BME280;55563;52.416;13.548;2023-09-12T07:09:20;100805.88;;;23.08;100.00
68594;BME280;55563;52.416;13.548;2023-09-12T07:11:21;100803.66;;;23.10;100.00
68594;BME280;55563;52.416;13.548;2023-09-12T07:13:29;100803.34;;;22.75;100.00
68594;BME280;55563;52.416;13.548;2023-09-12T07:15:35;100801.44;;;22.99;100.00
68594;BME280;55563;52.416;13.548;2023-09-12T07:17:39;100800.19;;;23.21;100.00
68594;BME280;55563;52.416;13.548;2023-09-12T07:19:43;100802.69;;;23.42;100.00
68594;BME280;55563;52.416;13.548;2023-09-12T07:21:47;100802.56;;;23.51;100.00
68594;BME280;55563;52.416;13.548;2023-09-12T07:23:53;100810.84;;;23.45;100.00
68594;BME280;55563;52.416;13.548;2023-09-12T07:25:57;100804.75;;;23.61;100.00
68594;BME280;55563;52.416;13.548;2023-09-12T07:28:25;100808.84;;;23.55;100.00
68594;BME280;55563;52.416;13.548;2023-09-12T07:30:55;100802.03;;;23.45;100.00
68594;BME280;55563;52.416;13.548;2023-09-12T07:33:24;100792.88;;;23.74;100.00
68594;BME280;55563;52.416;13.548;2023-09-12T07:36:14;100798.28;;;23.62;100.00
68594;BME280;55563;52.416;13.548;2023-09-12T07:38:34;100790.03;;;23.82;100.00
68594;BME280;55563;52.416;13.548;2023-09-12T07:40:55;100786.47;;;23.78;100.00
68594;BME280;55563;52.416;13.548;2023-09-12T07:43:33;100780.63;;;24.04;100.00
68594;BME280;55563;52.416;13.548;2023-09-12T07:45:41;100782.63;;;24.07;100.00
68594;BME280;55563;52.416;13.548;2023-09-12T07:48:10;100779.47;;;23.89;100.00
68594;BME280;55563;52.416;13.548;2023-09-12T07:50:32;100790.44;;;23.84;100.00
68594;BME280;55563;52.416;13.548;2023-09-12T07:53:04;100787.31;;;24.10;100.00
68594;BME280;55563;52.416;13.548;2023-09-12T07:55:09;100784.88;;;24.05;100.00
68594;BME280;55563;52.416;13.548;2023-09-12T07:57:10;100788.28;;;24.18;100.00
68594;BME280;55563;52.416;13.548;2023-09-12T07:59:14;100783.34;;;24.36;100.00
68594;BME280;55563;52.416;13.548;2023-09-12T08:01:20;100786.97;;;24.27;100.00
68594;BME280;55563;52.416;13.548;2023-09-12T08:03:33;100794.59;;;24.57;100.00
68594;BME280;55563;52.416;13.548;2023-09-12T08:05:35;100790.69;;;24.70;100.00
68594;BME280;55563;52.416;13.548;2023-09-12T08:07:40;100797.44;;;24.80;100.00
68594;BME280;55563;52.416;13.548;2023-09-12T08:09:56;100789.81;;;24.66;100.00
68594;BME280;55563;52.416;13.548;2023-09-12T08:12:00;100790.47;;;24.59;100.00
68594;BME280;55563;52.416;13.548;2023-09-12T08:14:04;100789.81;;;24.82;100.00
68594;BME280;55563;52.416;13.548;2023-09-12T08:16:06;100790.94;;;24.81;100.00
68594;BME280;55563;52.416;13.548;2023-09-12T08:18:10;100789.88;;;25.01;100.00
68594;BME280;55563;52.416;13.548;2023-09-12T08:20:19;100787.81;;;25.13;100.00
68594;BME280;55563;52.416;13.548;2023-09-12T08:22:25;100788.06;;;25.24;100.00
68594;BME280;55563;52.416;13.548;2023-09-12T08:24:42;100800.97;;;25.34;100.00
68594;BME280;55563;52.416;13.548;2023-09-12T08:26:49;100788.28;;;25.35;100.00
68594;BME280;55563;52.416;13.548;2023-09-12T08:28:52;100791.19;;;25.45;100.00
68594;BME280;55563;52.416;13.548;2023-09-12T08:30:53;100795.34;;;25.43;100.00
68594;BME280;55563;52.416;13.548;2023-09-12T08:32:58;100791.53;;;25.44;100.00
68594;BME280;55563;52.416;13.548;2023-09-12T08:34:59;100792.78;;;25.66;100.00
68594;BME280;55563;52.416;13.548;2023-09-12T08:37:04;100796.16;;;25.63;100.00
68594;BME280;55563;52.416;13.548;2023-09-12T08:39:14;100785.75;;;25.80;100.00
68594;BME280;55563;52.416;13.548;2023-09-12T08:41:25;100785.09;;;26.10;98.70
68594;BME280;55563;52.416;13.548;2023-09-12T08:43:41;100794.47;;;25.96;100.00
68594;BME280;55563;52.416;13.548;2023-09-12T08:45:46;100786.25;;;26.09;100.00
68594;BME280;55563;52.416;13.548;2023-09-12T08:47:53;100790.06;;;26.08;100.00
68594;BME280;55563;52.416;13.548;2023-09-12T08:50:00;100792.00;;;26.30;100.00
68594;BME280;55563;52.416;13.548;2023-09-12T08:52:11;100793.03;;;26.71;99.71
68594;BME280;55563;52.416;13.548;2023-09-12T08:55:31;100797.28;;;26.45;95.92
68594;BME280;55563;52.416;13.548;2023-09-12T08:57:57;100804.06;;;26.62;100.00
68594;BME280;55563;52.416;13.548;2023-09-12T09:00:19;100789.25;;;27.02;96.55
68594;BME280;55563;52.416;13.548;2023-09-12T09:02:36;100793.22;;;27.11;96.38
68594;BME280;55563;52.416;13.548;2023-09-12T09:04:48;100799.38;;;27.08;96.93
68594;BME280;55563;52.416;13.548;2023-09-12T09:06:55;100802.22;;;27.19;96.55
68594;BME280;55563;52.416;13.548;2023-09-12T09:09:04;100799.94;;;27.24;94.45
68594;BME280;55563;52.416;13.548;2023-09-12T09:11:10;100809.72;;;27.32;93.15
68594;BME280;55563;52.416;13.548;2023-09-12T09:13:14;100805.41;;;27.28;94.99
68594;BME280;55563;52.416;13.548;2023-09-12T09:15:44;100809.16;;;27.50;93.46
68594;BME280;55563;52.416;13.548;2023-09-12T09:17:47;100805.44;;;27.61;95.70
68594;BME280;55563;52.416;13.548;2023-09-12T09:19:51;100810.72;;;27.51;95.91
68594;BME280;55563;52.416;13.548;2023-09-12T09:22:05;100797.56;;;27.83;92.08
68594;BME280;55563;52.416;13.548;2023-09-12T09:24:12;100807.22;;;27.84;93.50
68594;BME280;55563;52.416;13.548;2023-09-12T09:26:16;100810.38;;;27.89;92.90
68594;BME280;55563;52.416;13.548;2023-09-12T09:28:21;100815.34;;;27.84;92.47
68594;BME280;55563;52.416;13.548;2023-09-12T09:30:48;100807.63;;;28.23;86.75
68594;BME280;55563;52.416;13.548;2023-09-12T09:33:04;100807.16;;;27.77;94.43
68594;BME280;55563;52.416;13.548;2023-09-12T09:35:07;100797.59;;;28.23;90.25
68594;BME280;55563;52.416;13.548;2023-09-12T09:37:15;100807.75;;;28.37;88.59
68594;BME280;55563;52.416;13.548;2023-09-12T09:39:19;100800.03;;;28.39;86.53
68594;BME280;55563;52.416;13.548;2023-09-12T09:41:22;100806.38;;;28.60;86.05
68594;BME280;55563;52.416;13.548;2023-09-12T09:43:23;100805.97;;;28.58;85.42
68594;BME280;55563;52.416;13.548;2023-09-12T09:45:30;100814.16;;;28.69;86.27
68594;BME280;55563;52.416;13.548;2023-09-12T09:47:34;100804.63;;;28.86;83.53
68594;BME280;55563;52.416;13.548;2023-09-12T09:49:36;100797.03;;;29.06;84.71
68594;BME280;55563;52.416;13.548;2023-09-12T09:51:44;100801.19;;;28.92;84.58
68594;BME280;55563;52.416;13.548;2023-09-12T09:53:52;100806.78;;;29.24;78.16
68594;BME280;55563;52.416;13.548;2023-09-12T09:56:14;100802.34;;;28.91;80.20
68594;BME280;55563;52.416;13.548;2023-09-12T09:58:23;100801.94;;;28.86;84.52
68594;BME280;55563;52.416;13.548;2023-09-12T10:00:25;100807.28;;;28.79;79.47
68594;BME280;55563;52.416;13.548;2023-09-12T10:02:35;100803.50;;;28.87;82.65
68594;BME280;55563;52.416;13.548;2023-09-12T10:05:05;100806.16;;;28.83;82.97
68594;BME280;55563;52.416;13.548;2023-09-12T10:07:06;100807.38;;;28.93;82.89
68594;BME280;55563;52.416;13.548;2023-09-12T10:09:12;100810.19;;;28.52;88.30
68594;BME280;55563;52.416;13.548;2023-09-12T10:11:15;100806.13;;;28.73;87.27
68594;BME280;55563;52.416;13.548;2023-09-12T10:13:20;100796.88;;;28.77;88.77
68594;BME280;55563;52.416;13.548;2023-09-12T10:15:29;100796.00;;;28.70;87.07
68594;BME280;55563;52.416;13.548;2023-09-12T10:17:57;100797.13;;;28.61;87.29
68594;BME280;55563;52.416;13.548;2023-09-12T10:20:06;100797.59;;;28.74;87.33
68594;BME280;55563;52.416;13.548;2023-09-12T10:22:40;100795.22;;;28.69;89.40
68594;BME280;55563;52.416;13.548;2023-09-12T10:24:56;100792.25;;;28.81;87.92
68594;BME280;55563;52.416;13.548;2023-09-12T10:27:06;100790.41;;;29.03;87.60
68594;BME280;55563;52.416;13.548;2023-09-12T10:42:13;100767.47;;;28.76;88.33
68594;BME280;55563;52.416;13.548;2023-09-12T10:44:17;100775.66;;;28.86;86.01
68594;BME280;55563;52.416;13.548;2023-09-12T10:46:17;100766.47;;;29.05;84.93
68594;BME280;55563;52.416;13.548;2023-09-12T10:48:18;100772.19;;;28.89;90.03
68594;BME280;55563;52.416;13.548;2023-09-12T10:50:20;100764.56;;;28.47;90.05